Time;durP1;ratioP1;P1;durP2;ratioP2;P2;SDS_P1;SDS_P2;PMS_P1;PMS_P2;Temp;Humidity;BMP_temperature;BMP_pressure;BME280_temperature;BME280_humidity;BME280_pressure;Samples;Min_cycle;Max_cycle;Signal;HPM_P1;HPM_P2
2022/09/09 00:01:38;;;;;;;;;;;14.60;99.90;;;;;;5029501;28;19934;-73
2022/09/09 00:04:14;;;;;;;;;;;14.50;99.90;;;;;;5029235;28;19952;-72
2022/09/09 00:06:46;;;;;;;;;;;14.50;99.90;;;;;;5028680;28;19969;-72
2022/09/09 00:09:17;;;;;;;;;;;14.50;99.90;;;;;;5028820;28;19929;-72
2022/09/09 00:11:52;;;;;;;;;;;14.60;99.90;;;;;;5026586;28;20001;-69
2022/09/09 00:14:31;;;;;;;;;;;14.60;99.90;;;;;;5029022;28;20403;-72
2022/09/09 00:17:23;;;;;;;;;;;14.50;99.90;;;;;;5028772;28;19917;-69
2022/09/09 00:19:53;;;;;;;;;;;14.50;99.90;;;;;;5017951;28;19920;-70
2022/09/09 00:22:21;;;;;;;;;;;14.60;99.90;;;;;;5028786;28;19913;-71
2022/09/09 00:24:50;;;;;;;;;;;14.60;99.90;;;;;;5028439;28;19917;-71
2022/09/09 00:27:23;;;;;;;;;;;14.60;99.90;;;;;;5028718;28;19919;-71
2022/09/09 00:30:14;;;;;;;;;;;14.70;99.90;;;;;;5028584;28;20400;-70
2022/09/09 00:32:41;;;;;;;;;;;14.70;99.90;;;;;;5028471;28;19917;-70
2022/09/09 00:35:11;;;;;;;;;;;14.60;99.90;;;;;;5028332;28;19913;-72
2022/09/09 00:37:38;;;;;;;;;;;14.60;99.90;;;;;;5028721;28;19913;-72
2022/09/09 00:40:17;;;;;;;;;;;14.60;99.90;;;;;;5028610;28;20431;-72
2022/09/09 00:42:44;;;;;;;;;;;14.70;99.90;;;;;;5028579;28;19919;-71
2022/09/09 00:45:20;;;;;;;;;;;14.80;99.90;;;;;;5028024;28;20268;-70
2022/09/09 00:47:47;;;;;;;;;;;14.80;99.90;;;;;;5028222;28;19920;-67
2022/09/09 00:50:24;;;;;;;;;;;14.70;99.90;;;;;;5028338;28;19921;-72
2022/09/09 00:52:59;;;;;;;;;;;14.70;99.90;;;;;;5028339;28;20042;-70
2022/09/09 00:55:32;;;;;;;;;;;14.70;99.90;;;;;;5028081;28;19920;-72
2022/09/09 00:57:58;;;;;;;;;;;14.70;99.90;;;;;;5027761;28;19910;-70
2022/09/09 01:00:28;;;;;;;;;;;14.70;99.90;;;;;;5028200;28;19920;-71
2022/09/09 01:03:14;;;;;;;;;;;14.80;99.90;;;;;;5028274;28;19961;-72
2022/09/09 01:05:46;;;;;;;;;;;14.80;99.90;;;;;;5027576;28;19913;-72
2022/09/09 01:08:28;;;;;;;;;;;14.90;99.90;;;;;;5028153;28;19924;-72
2022/09/09 01:10:54;;;;;;;;;;;14.80;99.90;;;;;;5027529;28;20307;-72
2022/09/09 01:13:25;;;;;;;;;;;14.90;99.90;;;;;;5028193;28;19909;-71
2022/09/09 01:15:53;;;;;;;;;;;14.90;99.90;;;;;;5059212;28;19961;-72
2022/09/09 01:18:27;;;;;;;;;;;14.90;99.90;;;;;;5028069;28;19915;-71
2022/09/09 01:20:55;;;;;;;;;;;14.90;99.90;;;;;;5027685;28;20287;-71
2022/09/09 01:23:38;;;;;;;;;;;15.00;99.90;;;;;;5027613;28;19916;-72
2022/09/09 01:26:10;;;;;;;;;;;15.10;99.90;;;;;;5027654;28;19917;-71
2022/09/09 01:28:38;;;;;;;;;;;15.20;99.90;;;;;;5027855;28;19913;-70
2022/09/09 01:31:06;;;;;;;;;;;15.30;99.90;;;;;;5027827;28;20303;-70
2022/09/09 01:33:33;;;;;;;;;;;15.40;99.90;;;;;;5027676;28;19917;-70
2022/09/09 01:36:06;;;;;;;;;;;15.50;99.90;;;;;;5026826;28;20374;-72
2022/09/09 01:38:33;;;;;;;;;;;15.50;99.90;;;;;;5027865;28;19918;-70
2022/09/09 01:41:01;;;;;;;;;;;15.60;99.90;;;;;;5027699;28;19913;-71
2022/09/09 01:43:28;;;;;;;;;;;15.60;99.90;;;;;;5027687;28;20009;-71
2022/09/09 01:45:56;;;;;;;;;;;15.60;99.90;;;;;;5027045;28;19910;-70
2022/09/09 01:48:23;;;;;;;;;;;15.60;99.90;;;;;;5027463;28;19913;-67
2022/09/09 01:51:08;;;;;;;;;;;15.60;99.90;;;;;;5026965;28;19924;-69
2022/09/09 01:54:06;;;;;;;;;;;15.60;99.90;;;;;;5026927;28;19992;-69
2022/09/09 01:56:38;;;;;;;;;;;15.70;99.90;;;;;;5027245;28;19909;-69
2022/09/09 01:59:05;;;;;;;;;;;16.00;99.90;;;;;;5027369;28;19913;-71
2022/09/09 02:01:47;;;;;;;;;;;16.00;99.90;;;;;;5027360;28;19909;-69
2022/09/09 02:04:40;;;;;;;;;;;16.20;99.90;;;;;;5027110;28;19920;-70
2022/09/09 02:07:11;;;;;;;;;;;16.30;99.90;;;;;;5024407;28;20003;-71
2022/09/09 02:09:40;;;;;;;;;;;16.40;99.90;;;;;;5026633;28;20007;-70
2022/09/09 02:12:11;;;;;;;;;;;16.60;99.90;;;;;;5027103;28;19921;-70
2022/09/09 02:14:42;;;;;;;;;;;16.70;99.90;;;;;;5026781;28;20253;-69
2022/09/09 02:17:10;;;;;;;;;;;16.80;99.90;;;;;;5026980;28;19913;-71
2022/09/09 02:19:39;;;;;;;;;;;16.90;99.90;;;;;;5026920;28;19921;-70
2022/09/09 02:22:06;;;;;;;;;;;16.90;99.90;;;;;;5028554;28;19970;-69
2022/09/09 02:24:34;;;;;;;;;;;17.00;99.90;;;;;;5028786;28;19913;-69
2022/09/09 02:27:03;;;;;;;;;;;17.20;99.90;;;;;;5061023;28;19909;-70
2022/09/09 02:29:32;;;;;;;;;;;17.30;99.90;;;;;;5029142;28;19913;-69
2022/09/09 02:32:00;;;;;;;;;;;17.20;99.90;;;;;;5028797;28;19990;-70
2022/09/09 02:34:27;;;;;;;;;;;17.30;99.90;;;;;;5028681;28;19940;-68
2022/09/09 02:36:55;;;;;;;;;;;17.30;99.90;;;;;;5028735;28;19916;-70
2022/09/09 02:39:22;;;;;;;;;;;17.40;99.90;;;;;;5028851;28;19916;-70
2022/09/09 02:41:51;;;;;;;;;;;17.40;99.90;;;;;;5028650;28;20496;-70
2022/09/09 02:44:19;;;;;;;;;;;17.40;99.90;;;;;;5028681;28;19913;-69
2022/09/09 02:46:45;;;;;;;;;;;17.40;99.90;;;;;;5028658;28;19920;-69
2022/09/09 02:49:12;;;;;;;;;;;17.50;99.90;;;;;;5028734;28;19914;-70
2022/09/09 02:51:51;;;;;;;;;;;17.50;99.90;;;;;;5028222;28;19917;-68
2022/09/09 02:54:17;;;;;;;;;;;17.50;99.90;;;;;;5028297;28;19910;-70
2022/09/09 02:56:50;;;;;;;;;;;17.50;99.90;;;;;;5028705;28;19919;-69
2022/09/09 02:59:17;;;;;;;;;;;17.60;99.90;;;;;;5028704;28;19916;-69
2022/09/09 03:01:44;;;;;;;;;;;17.60;99.90;;;;;;5028351;28;19949;-69
2022/09/09 03:04:11;;;;;;;;;;;17.70;99.90;;;;;;5028413;28;19913;-69
2022/09/09 03:06:38;;;;;;;;;;;17.70;99.90;;;;;;5027850;28;19966;-70
2022/09/09 03:09:05;;;;;;;;;;;17.80;99.90;;;;;;5028079;28;19913;-69
2022/09/09 03:11:32;;;;;;;;;;;17.80;99.90;;;;;;5028206;28;20008;-69
2022/09/09 03:13:58;;;;;;;;;;;17.80;99.90;;;;;;5027999;28;19909;-70
2022/09/09 03:16:25;;;;;;;;;;;17.80;99.90;;;;;;5028084;28;19913;-69
2022/09/09 03:18:52;;;;;;;;;;;17.80;99.90;;;;;;5018213;28;20383;-70
2022/09/09 03:21:21;;;;;;;;;;;17.90;99.90;;;;;;5025197;28;19923;-70
2022/09/09 03:23:48;;;;;;;;;;;17.90;99.90;;;;;;5031099;28;19920;-69
2022/09/09 03:26:15;;;;;;;;;;;17.80;99.90;;;;;;5031389;28;20359;-70
2022/09/09 03:28:43;;;;;;;;;;;17.80;99.90;;;;;;5031695;28;20389;-70
2022/09/09 03:31:10;;;;;;;;;;;17.80;99.90;;;;;;5031699;28;19917;-69
2022/09/09 03:33:41;;;;;;;;;;;17.80;99.90;;;;;;5031343;28;19982;-70
2022/09/09 03:36:11;;;;;;;;;;;17.80;99.90;;;;;;5030733;28;19917;-69
2022/09/09 03:38:37;;;;;;;;;;;17.90;99.90;;;;;;5031591;28;19913;-69
2022/09/09 03:41:07;;;;;;;;;;;17.80;99.90;;;;;;5031792;28;20292;-68
2022/09/09 03:43:34;;;;;;;;;;;17.80;99.90;;;;;;5031512;28;20062;-70
2022/09/09 03:46:01;;;;;;;;;;;17.80;99.90;;;;;;5031116;28;19920;-69
2022/09/09 03:48:28;;;;;;;;;;;17.70;99.90;;;;;;5031475;28;19909;-69
2022/09/09 03:50:55;;;;;;;;;;;17.70;99.90;;;;;;5031270;28;19921;-70
2022/09/09 03:53:24;;;;;;;;;;;17.80;99.90;;;;;;5031172;28;19920;-69
2022/09/09 03:55:59;;;;;;;;;;;17.80;99.90;;;;;;5062706;27;20397;-68
2022/09/09 03:58:26;;;;;;;;;;;17.90;99.90;;;;;;5031106;28;19916;-69
2022/09/09 04:00:54;;;;;;;;;;;17.90;99.90;;;;;;5031103;28;20256;-68
2022/09/09 04:03:22;;;;;;;;;;;18.00;99.90;;;;;;5031403;28;19919;-69
2022/09/09 04:05:55;;;;;;;;;;;18.10;99.90;;;;;;5030428;28;19909;-69
2022/09/09 04:08:25;;;;;;;;;;;18.20;99.90;;;;;;5031236;28;19917;-69
2022/09/09 04:10:52;;;;;;;;;;;18.10;99.90;;;;;;5030531;28;19929;-69
2022/09/09 04:13:19;;;;;;;;;;;18.10;99.90;;;;;;5031033;28;20241;-70
2022/09/09 04:15:53;;;;;;;;;;;18.10;99.90;;;;;;5030393;28;20383;-69
2022/09/09 04:18:20;;;;;;;;;;;18.10;99.90;;;;;;5030920;28;19970;-69
2022/09/09 04:20:50;;;;;;;;;;;18.20;99.90;;;;;;5030598;28;19913;-69
2022/09/09 04:23:18;;;;;;;;;;;18.20;99.90;;;;;;5030698;28;20356;-68
2022/09/09 04:25:49;;;;;;;;;;;18.20;99.90;;;;;;5030249;28;19947;-68
2022/09/09 04:28:16;;;;;;;;;;;18.20;99.90;;;;;;5030615;28;20355;-68
2022/09/09 04:30:43;;;;;;;;;;;18.20;99.90;;;;;;5030616;28;19921;-68
2022/09/09 04:33:10;;;;;;;;;;;18.20;99.90;;;;;;5030252;28;20000;-68
2022/09/09 04:35:38;;;;;;;;;;;18.20;99.90;;;;;;5029933;28;19916;-67
2022/09/09 04:38:07;;;;;;;;;;;18.10;99.90;;;;;;5030507;28;19961;-68
2022/09/09 04:40:34;;;;;;;;;;;18.10;99.90;;;;;;5030383;28;19910;-69
2022/09/09 04:43:04;;;;;;;;;;;18.10;99.90;;;;;;5030293;28;19955;-68
2022/09/09 04:45:31;;;;;;;;;;;18.00;99.90;;;;;;5028908;28;19916;-69
2022/09/09 04:47:58;;;;;;;;;;;17.90;99.90;;;;;;5030096;28;19973;-68
2022/09/09 04:50:25;;;;;;;;;;;18.00;99.90;;;;;;5030286;28;19917;-67
2022/09/09 04:52:52;;;;;;;;;;;18.10;99.90;;;;;;5030188;28;19917;-68
2022/09/09 04:55:19;;;;;;;;;;;18.20;99.90;;;;;;5062020;27;20368;-68
2022/09/09 04:57:45;;;;;;;;;;;18.20;99.90;;;;;;5029974;28;20371;-69
2022/09/09 05:00:13;;;;;;;;;;;18.20;99.90;;;;;;5030092;28;19961;-68
2022/09/09 05:02:41;;;;;;;;;;;18.20;99.90;;;;;;5030163;28;19913;-68
2022/09/09 05:05:08;;;;;;;;;;;18.10;99.90;;;;;;5029658;28;19909;-69
2022/09/09 05:07:34;;;;;;;;;;;18.10;99.90;;;;;;5029918;28;19909;-69
2022/09/09 05:10:04;;;;;;;;;;;18.30;99.90;;;;;;5029542;28;19928;-66
2022/09/09 05:12:31;;;;;;;;;;;18.40;99.90;;;;;;5029883;28;20394;-67
2022/09/09 05:14:58;;;;;;;;;;;18.40;99.90;;;;;;5029500;28;19909;-67
2022/09/09 05:17:25;;;;;;;;;;;18.40;99.90;;;;;;5018026;28;19920;-69
2022/09/09 05:19:51;;;;;;;;;;;18.50;99.90;;;;;;5012564;28;19909;-68
2022/09/09 05:22:22;;;;;;;;;;;18.60;99.90;;;;;;5029784;28;19916;-69
2022/09/09 05:24:52;;;;;;;;;;;18.70;99.90;;;;;;5029306;28;20423;-67
2022/09/09 05:27:19;;;;;;;;;;;18.70;99.90;;;;;;5029606;28;19916;-68
2022/09/09 05:29:46;;;;;;;;;;;18.60;99.90;;;;;;5029614;28;19913;-68
2022/09/09 05:32:15;;;;;;;;;;;18.60;99.90;;;;;;5029645;28;19921;-68
2022/09/09 05:34:41;;;;;;;;;;;18.60;99.90;;;;;;5029284;28;19917;-68
2022/09/09 05:37:08;;;;;;;;;;;18.50;99.90;;;;;;5029374;28;20290;-67
2022/09/09 05:39:37;;;;;;;;;;;18.50;99.90;;;;;;5029233;28;20380;-68
2022/09/09 05:42:05;;;;;;;;;;;18.50;99.90;;;;;;5029252;28;19909;-67
2022/09/09 05:44:32;;;;;;;;;;;18.50;99.90;;;;;;5028298;28;19962;-68
2022/09/09 05:46:58;;;;;;;;;;;18.50;99.90;;;;;;5029078;28;20392;-68
2022/09/09 05:49:25;;;;;;;;;;;18.50;99.90;;;;;;5029043;28;19913;-68
2022/09/09 05:51:52;;;;;;;;;;;18.60;99.90;;;;;;5029016;28;19917;-68
2022/09/09 05:54:19;;;;;;;;;;;18.50;99.90;;;;;;5027775;28;19960;-68
2022/09/09 05:56:46;;;;;;;;;;;18.60;99.90;;;;;;5029428;28;19919;-67
2022/09/09 05:59:13;;;;;;;;;;;18.70;99.90;;;;;;5029210;28;20372;-68
2022/09/09 06:01:40;;;;;;;;;;;18.70;99.90;;;;;;5029087;28;19958;-67
2022/09/09 06:04:07;;;;;;;;;;;18.70;99.90;;;;;;5028698;28;19909;-68
2022/09/09 06:06:39;;;;;;;;;;;18.60;99.90;;;;;;5029346;28;19920;-68
2022/09/09 06:09:09;;;;;;;;;;;18.60;99.90;;;;;;5028915;28;20017;-68
2022/09/09 06:11:37;;;;;;;;;;;18.60;99.90;;;;;;5028929;28;20383;-69
2022/09/09 06:14:03;;;;;;;;;;;18.40;99.90;;;;;;5028836;28;19913;-69
2022/09/09 06:16:32;;;;;;;;;;;18.30;99.90;;;;;;5029008;28;20004;-68
2022/09/09 06:18:59;;;;;;;;;;;18.20;99.90;;;;;;5028749;28;19909;-68
2022/09/09 06:21:32;;;;;;;;;;;18.20;99.90;;;;;;5028857;28;19915;-69
2022/09/09 06:23:59;;;;;;;;;;;18.20;99.90;;;;;;5028617;28;19913;-68
2022/09/09 06:26:27;;;;;;;;;;;18.10;99.90;;;;;;5028965;28;20024;-68
2022/09/09 06:28:55;;;;;;;;;;;18.10;99.90;;;;;;5029004;28;20000;-67
2022/09/09 06:31:23;;;;;;;;;;;18.20;99.90;;;;;;5028870;28;20017;-68
2022/09/09 06:33:50;;;;;;;;;;;18.30;99.90;;;;;;5028528;28;19917;-69
2022/09/09 06:36:18;;;;;;;;;;;18.30;99.90;;;;;;5028527;28;20301;-68
2022/09/09 06:38:45;;;;;;;;;;;18.30;99.90;;;;;;5028775;28;20356;-68
2022/09/09 06:41:13;;;;;;;;;;;18.30;99.90;;;;;;5028842;28;19909;-69
2022/09/09 06:43:40;;;;;;;;;;;18.30;99.90;;;;;;5028655;28;20321;-69
2022/09/09 06:46:09;;;;;;;;;;;18.40;99.90;;;;;;5028525;28;19914;-68
2022/09/09 06:48:36;;;;;;;;;;;18.40;99.90;;;;;;5028681;28;20354;-69
2022/09/09 06:51:07;;;;;;;;;;;18.30;99.90;;;;;;5027097;28;19921;-68
2022/09/09 06:53:34;;;;;;;;;;;18.20;99.90;;;;;;5026748;28;19913;-68
2022/09/09 06:56:22;;;;;;;;;;;18.20;99.90;;;;;;5026698;28;19962;-68
2022/09/09 06:58:50;;;;;;;;;;;18.20;99.90;;;;;;5030133;28;19995;-69
2022/09/09 07:01:19;;;;;;;;;;;18.10;99.90;;;;;;5030118;28;20279;-69
2022/09/09 07:03:48;;;;;;;;;;;18.00;99.90;;;;;;5029694;28;19917;-68
2022/09/09 07:06:34;;;;;;;;;;;17.90;99.90;;;;;;5029729;28;19913;-68
2022/09/09 07:09:03;;;;;;;;;;;17.80;99.90;;;;;;5029743;28;19945;-70
2022/09/09 07:11:31;;;;;;;;;;;17.70;99.90;;;;;;5029836;28;19921;-68
2022/09/09 07:13:59;;;;;;;;;;;17.60;99.90;;;;;;5029330;28;19913;-68
2022/09/09 07:16:27;;;;;;;;;;;17.50;99.90;;;;;;5029685;28;19970;-68
2022/09/09 07:18:57;;;;;;;;;;;17.40;99.90;;;;;;5029065;28;20019;-67
2022/09/09 07:21:26;;;;;;;;;;;17.40;99.90;;;;;;5029465;28;20298;-68
2022/09/09 07:23:53;;;;;;;;;;;17.30;99.90;;;;;;5029075;28;19957;-68
2022/09/09 07:26:21;;;;;;;;;;;17.30;99.90;;;;;;5029641;28;20346;-69
2022/09/09 07:28:48;;;;;;;;;;;17.30;99.90;;;;;;5029633;28;19910;-68
2022/09/09 07:31:16;;;;;;;;;;;17.20;99.90;;;;;;5029256;28;20641;-68
2022/09/09 07:33:44;;;;;;;;;;;17.10;99.90;;;;;;5029331;28;19964;-69
2022/09/09 07:36:14;;;;;;;;;;;17.10;99.90;;;;;;5029241;28;19953;-68
2022/09/09 07:38:43;;;;;;;;;;;17.00;99.90;;;;;;5029533;28;19909;-68
2022/09/09 07:41:14;;;;;;;;;;;17.00;99.90;;;;;;5029184;28;20106;-69
2022/09/09 07:43:42;;;;;;;;;;;16.90;99.90;;;;;;5028766;28;20699;-68
2022/09/09 07:46:09;;;;;;;;;;;16.80;99.90;;;;;;5028973;28;20004;-68
2022/09/09 07:48:36;;;;;;;;;;;16.80;99.90;;;;;;5029189;28;19964;-68
2022/09/09 07:51:11;;;;;;;;;;;16.80;99.90;;;;;;5029213;28;20308;-69
2022/09/09 07:53:39;;;;;;;;;;;16.80;99.90;;;;;;5028907;28;20321;-69
2022/09/09 07:56:09;;;;;;;;;;;16.80;99.90;;;;;;5028415;28;19909;-67
2022/09/09 07:58:39;;;;;;;;;;;16.80;99.90;;;;;;5029002;28;19932;-68
2022/09/09 08:01:11;;;;;;;;;;;16.80;99.90;;;;;;5029032;28;19909;-68
2022/09/09 08:03:38;;;;;;;;;;;16.70;99.90;;;;;;5028945;28;19913;-68
2022/09/09 08:06:07;;;;;;;;;;;16.70;99.90;;;;;;5028759;28;19909;-68
2022/09/09 08:08:34;;;;;;;;;;;16.70;99.90;;;;;;5027971;28;19924;-68
2022/09/09 08:11:15;;;;;;;;;;;16.70;99.90;;;;;;5028609;28;19921;-68
2022/09/09 08:13:42;;;;;;;;;;;16.60;99.90;;;;;;5028722;28;19913;-69
2022/09/09 08:16:11;;;;;;;;;;;16.60;99.90;;;;;;5028822;28;19916;-69
2022/09/09 08:18:38;;;;;;;;;;;16.50;99.90;;;;;;5028535;28;20007;-68
2022/09/09 08:21:06;;;;;;;;;;;16.50;99.90;;;;;;5028561;28;20292;-69
2022/09/09 08:23:34;;;;;;;;;;;16.50;99.90;;;;;;5028413;28;20352;-70
2022/09/09 08:26:10;;;;;;;;;;;16.50;99.90;;;;;;5028395;28;19916;-69
2022/09/09 08:28:37;;;;;;;;;;;16.40;99.90;;;;;;5028675;28;19944;-69
2022/09/09 08:31:23;;;;;;;;;;;16.40;99.90;;;;;;5028464;28;20023;-69
2022/09/09 08:33:50;;;;;;;;;;;16.40;99.90;;;;;;5027796;28;20359;-69
2022/09/09 08:36:18;;;;;;;;;;;16.40;99.90;;;;;;5027960;28;19913;-68
2022/09/09 08:38:47;;;;;;;;;;;16.40;99.90;;;;;;5028635;28;19913;-67
2022/09/09 08:41:25;;;;;;;;;;;16.40;99.90;;;;;;5028380;28;19910;-69
2022/09/09 08:43:59;;;;;;;;;;;16.40;99.90;;;;;;5027690;28;19913;-68
2022/09/09 08:46:29;;;;;;;;;;;16.30;99.90;;;;;;5028641;28;19962;-68
2022/09/09 08:48:56;;;;;;;;;;;16.30;99.90;;;;;;5027943;28;19982;-68
2022/09/09 08:51:25;;;;;;;;;;;16.30;99.90;;;;;;5028415;28;19921;-69
2022/09/09 08:53:53;;;;;;;;;;;16.30;99.90;;;;;;5027912;28;19988;-69
2022/09/09 08:56:22;;;;;;;;;;;16.40;99.90;;;;;;5028090;28;19937;-69
2022/09/09 08:58:50;;;;;;;;;;;16.30;99.90;;;;;;5028303;28;19920;-70
2022/09/09 09:01:35;;;;;;;;;;;16.40;99.90;;;;;;5028147;28;20406;-69
2022/09/09 09:04:06;;;;;;;;;;;16.30;99.90;;;;;;5021653;28;20431;-68
2022/09/09 09:06:36;;;;;;;;;;;16.30;99.90;;;;;;5008624;28;20064;-68
2022/09/09 09:09:14;;;;;;;;;;;16.30;99.90;;;;;;5009093;28;19929;-69
2022/09/09 09:11:45;;;;;;;;;;;16.30;99.90;;;;;;5009910;28;20049;-70
2022/09/09 09:14:23;;;;;;;;;;;16.30;99.90;;;;;;5009898;28;19917;-68
2022/09/09 09:16:56;;;;;;;;;;;16.30;99.90;;;;;;5009654;28;20397;-69
2022/09/09 09:19:25;;;;;;;;;;;16.30;99.90;;;;;;5009014;28;19922;-69
2022/09/09 09:21:58;;;;;;;;;;;16.20;99.90;;;;;;5028842;28;20366;-69
2022/09/09 09:24:43;;;;;;;;;;;16.30;99.90;;;;;;5029356;28;20000;-69
2022/09/09 09:27:14;;;;;;;;;;;16.20;99.90;;;;;;5029646;28;20287;-68
2022/09/09 09:29:43;;;;;;;;;;;16.20;99.90;;;;;;5029291;28;20279;-68
2022/09/09 09:32:14;;;;;;;;;;;16.20;99.90;;;;;;5029019;28;20345;-68
2022/09/09 09:34:40;;;;;;;;;;;16.20;99.90;;;;;;5029024;28;19913;-69
2022/09/09 09:37:19;;;;;;;;;;;16.20;99.90;;;;;;5028107;28;20276;-69
2022/09/09 09:39:46;;;;;;;;;;;16.20;99.90;;;;;;5029408;28;19916;-68
2022/09/09 09:42:14;;;;;;;;;;;16.20;99.90;;;;;;5029363;28;19909;-68
2022/09/09 09:44:41;;;;;;;;;;;16.20;99.90;;;;;;5029090;28;19910;-67
2022/09/09 09:47:18;;;;;;;;;;;16.20;99.90;;;;;;5028488;28;20368;-69
2022/09/09 09:49:56;;;;;;;;;;;16.20;99.90;;;;;;5029130;28;20378;-67
2022/09/09 09:52:34;;;;;;;;;;;16.10;99.90;;;;;;5029346;28;20008;-67
2022/09/09 09:55:03;;;;;;;;;;;16.10;99.90;;;;;;5029232;28;19915;-69
2022/09/09 09:57:31;;;;;;;;;;;16.10;99.90;;;;;;5029183;28;19932;-68
2022/09/09 10:00:17;;;;;;;;;;;16.10;99.90;;;;;;5028952;28;19916;-67
2022/09/09 10:02:45;;;;;;;;;;;16.10;99.90;;;;;;5013294;28;20313;-67
2022/09/09 10:05:25;;;;;;;;;;;16.10;99.90;;;;;;5008771;28;19914;-67
2022/09/09 10:08:02;;;;;;;;;;;16.00;99.90;;;;;;5008771;28;19921;-68
2022/09/09 10:10:48;;;;;;;;;;;16.10;99.90;;;;;;5009018;28;20338;-67
2022/09/09 10:13:50;;;;;;;;;;;16.00;99.90;;;;;;5029353;28;19944;-68
2022/09/09 10:16:26;;;;;;;;;;;16.00;99.90;;;;;;5049370;28;20003;-67
2022/09/09 10:19:12;;;;;;;;;;;16.00;99.90;;;;;;5014822;28;19918;-68
2022/09/09 10:21:45;;;;;;;;;;;16.00;99.90;;;;;;5026715;28;19921;-68
2022/09/09 10:24:22;;;;;;;;;;;15.90;99.90;;;;;;5026068;28;19966;-67
2022/09/09 10:27:08;;;;;;;;;;;15.90;99.90;;;;;;5009210;28;19909;-68
2022/09/09 10:29:50;;;;;;;;;;;15.90;99.90;;;;;;4987955;28;19986;-68
2022/09/09 10:32:37;;;;;;;;;;;15.90;99.90;;;;;;5042834;28;19965;-67
2022/09/09 10:35:22;;;;;;;;;;;15.90;99.90;;;;;;5012189;28;19913;-66
2022/09/09 10:37:54;;;;;;;;;;;15.90;99.90;;;;;;5012455;28;19913;-67
2022/09/09 10:40:26;;;;;;;;;;;15.90;99.90;;;;;;5043726;28;19917;-67
2022/09/09 10:42:58;;;;;;;;;;;15.80;99.90;;;;;;5012763;28;19909;-67
2022/09/09 10:45:34;;;;;;;;;;;15.80;99.90;;;;;;5012211;28;19914;-67
2022/09/09 10:48:04;;;;;;;;;;;15.80;99.90;;;;;;5012173;28;19916;-67
2022/09/09 10:50:43;;;;;;;;;;;15.80;99.90;;;;;;5012357;28;19983;-67
2022/09/09 10:53:09;;;;;;;;;;;15.80;99.90;;;;;;5011983;28;20061;-68
2022/09/09 10:55:41;;;;;;;;;;;15.80;99.90;;;;;;5011757;28;19958;-67
2022/09/09 10:58:38;;;;;;;;;;;15.80;99.90;;;;;;5012326;28;19997;-67
2022/09/09 11:01:24;;;;;;;;;;;15.90;99.90;;;;;;5003450;28;20383;-68
2022/09/09 11:04:14;;;;;;;;;;;15.90;99.90;;;;;;5011796;28;19955;-69
2022/09/09 11:06:44;;;;;;;;;;;15.90;99.90;;;;;;5012345;28;19913;-69
2022/09/09 11:09:16;;;;;;;;;;;15.90;99.90;;;;;;5011737;28;20398;-68
2022/09/09 11:11:50;;;;;;;;;;;16.00;99.90;;;;;;5011898;28;20384;-69
2022/09/09 11:14:38;;;;;;;;;;;16.00;99.90;;;;;;5011840;28;20354;-69
2022/09/09 11:17:24;;;;;;;;;;;16.00;99.90;;;;;;5012040;28;19967;-69
2022/09/09 11:19:52;;;;;;;;;;;16.00;99.90;;;;;;5014516;28;20378;-67
2022/09/09 11:22:30;;;;;;;;;;;16.10;99.90;;;;;;5031687;28;20351;-68
2022/09/09 11:25:06;;;;;;;;;;;16.10;99.90;;;;;;5030854;28;19961;-68
2022/09/09 11:27:50;;;;;;;;;;;16.10;99.90;;;;;;5031593;28;19909;-68
2022/09/09 11:30:19;;;;;;;;;;;16.20;99.90;;;;;;5031815;28;20276;-68
2022/09/09 11:32:58;;;;;;;;;;;16.20;99.90;;;;;;5031421;28;19917;-69
2022/09/09 11:35:29;;;;;;;;;;;16.20;99.90;;;;;;5031219;28;19913;-68
2022/09/09 11:38:05;;;;;;;;;;;16.20;99.90;;;;;;5030647;28;20333;-69
2022/09/09 11:40:33;;;;;;;;;;;16.20;99.90;;;;;;5031568;28;19954;-68
2022/09/09 11:43:12;;;;;;;;;;;16.20;99.90;;;;;;5062089;28;19916;-69
2022/09/09 11:45:40;;;;;;;;;;;16.20;99.90;;;;;;5031059;28;19913;-69
2022/09/09 11:48:27;;;;;;;;;;;16.30;99.90;;;;;;5031003;28;19913;-69
2022/09/09 11:51:07;;;;;;;;;;;16.30;99.90;;;;;;5031246;28;20248;-69
2022/09/09 11:53:34;;;;;;;;;;;16.30;99.90;;;;;;5030492;28;19944;-69
2022/09/09 11:56:03;;;;;;;;;;;16.30;99.90;;;;;;5031271;28;20284;-69
2022/09/09 11:58:33;;;;;;;;;;;16.30;99.90;;;;;;5031091;28;20007;-67
2022/09/09 12:01:00;;;;;;;;;;;16.30;99.90;;;;;;5031300;28;20351;-68
2022/09/09 12:03:41;;;;;;;;;;;16.40;99.90;;;;;;5030724;28;19909;-67
2022/09/09 12:06:26;;;;;;;;;;;16.40;99.90;;;;;;5031222;28;19966;-67
2022/09/09 12:08:56;;;;;;;;;;;16.40;99.90;;;;;;5030368;28;20553;-67
2022/09/09 12:11:30;;;;;;;;;;;16.40;99.90;;;;;;5031960;28;20007;-69
2022/09/09 12:13:59;;;;;;;;;;;16.40;99.90;;;;;;5031132;28;19909;-67
2022/09/09 12:16:32;;;;;;;;;;;16.30;99.90;;;;;;5032085;28;19999;-68
2022/09/09 12:19:06;;;;;;;;;;;16.20;99.90;;;;;;5032409;28;20265;-68
2022/09/09 12:21:45;;;;;;;;;;;16.30;99.90;;;;;;5032364;28;19914;-69
2022/09/09 12:24:14;;;;;;;;;;;16.30;99.90;;;;;;5031575;28;19978;-69
2022/09/09 12:26:48;;;;;;;;;;;16.30;99.90;;;;;;5032155;28;19954;-68
2022/09/09 12:29:24;;;;;;;;;;;16.30;99.90;;;;;;5027082;28;20398;-68
2022/09/09 12:32:11;;;;;;;;;;;16.40;99.90;;;;;;5028081;28;19921;-67
2022/09/09 12:34:39;;;;;;;;;;;16.30;99.90;;;;;;5028692;28;19913;-67
2022/09/09 12:37:12;;;;;;;;;;;16.40;99.90;;;;;;5028243;28;19913;-69
2022/09/09 12:39:43;;;;;;;;;;;16.40;99.90;;;;;;5028449;28;19978;-67
2022/09/09 12:42:16;;;;;;;;;;;16.30;99.90;;;;;;5028738;28;20003;-67
2022/09/09 12:44:53;;;;;;;;;;;16.30;99.90;;;;;;5028275;28;20291;-68
2022/09/09 12:47:21;;;;;;;;;;;16.10;99.90;;;;;;5028298;28;20003;-67
2022/09/09 12:49:49;;;;;;;;;;;16.10;99.90;;;;;;5027892;28;20431;-68
2022/09/09 12:52:21;;;;;;;;;;;16.10;99.90;;;;;;5027736;28;19928;-68
2022/09/09 12:54:50;;;;;;;;;;;16.10;99.90;;;;;;5028183;28;19919;-68
2022/09/09 12:57:17;;;;;;;;;;;16.10;99.90;;;;;;5028120;28;19910;-67
2022/09/09 12:59:50;;;;;;;;;;;16.20;99.90;;;;;;5027872;28;19921;-67
2022/09/09 13:02:24;;;;;;;;;;;16.20;99.90;;;;;;5028098;28;19913;-67
2022/09/09 13:04:52;;;;;;;;;;;16.20;99.90;;;;;;5028378;28;20323;-68
2022/09/09 13:07:19;;;;;;;;;;;16.30;99.90;;;;;;5027869;28;19910;-66
2022/09/09 13:09:47;;;;;;;;;;;16.30;99.90;;;;;;5027516;28;19925;-67
2022/09/09 13:12:22;;;;;;;;;;;16.30;99.90;;;;;;5028050;28;19933;-67
2022/09/09 13:14:51;;;;;;;;;;;16.30;99.90;;;;;;5028309;28;20303;-68
2022/09/09 13:17:28;;;;;;;;;;;16.30;99.90;;;;;;5028333;28;20299;-69
2022/09/09 13:19:56;;;;;;;;;;;16.30;99.90;;;;;;5027919;28;20362;-67
2022/09/09 13:22:27;;;;;;;;;;;16.30;99.90;;;;;;5029282;28;19913;-68
2022/09/09 13:25:17;;;;;;;;;;;16.30;99.90;;;;;;5036757;28;20268;-67
2022/09/09 13:27:56;;;;;;;;;;;16.20;99.90;;;;;;5063136;28;19917;-67
2022/09/09 13:30:36;;;;;;;;;;;16.10;99.90;;;;;;5027646;28;20372;-68
2022/09/09 13:33:14;;;;;;;;;;;16.10;99.90;;;;;;5028144;28;19975;-68
2022/09/09 13:35:49;;;;;;;;;;;16.10;99.90;;;;;;5031049;28;19919;-68
2022/09/09 13:38:16;;;;;;;;;;;16.00;99.90;;;;;;5027492;28;19932;-67
2022/09/09 13:40:57;;;;;;;;;;;16.00;99.90;;;;;;5028000;28;19915;-67
2022/09/09 13:43:25;;;;;;;;;;;16.00;99.90;;;;;;5027938;28;19913;-67
2022/09/09 13:46:02;;;;;;;;;;;16.00;99.90;;;;;;5027460;28;19909;-68
2022/09/09 13:48:30;;;;;;;;;;;15.90;99.90;;;;;;5027432;28;19920;-66
2022/09/09 13:50:59;;;;;;;;;;;15.90;99.90;;;;;;5027191;28;20336;-66
2022/09/09 13:53:25;;;;;;;;;;;15.90;99.90;;;;;;5027980;28;20395;-67
2022/09/09 13:55:53;;;;;;;;;;;15.90;99.90;;;;;;5025406;28;20039;-68
2022/09/09 13:58:22;;;;;;;;;;;15.80;99.90;;;;;;5009305;28;20692;-67
2022/09/09 14:00:49;;;;;;;;;;;15.90;99.90;;;;;;5008461;28;19918;-68
2022/09/09 14:03:16;;;;;;;;;;;15.80;99.90;;;;;;5009790;28;19910;-69
2022/09/09 14:05:44;;;;;;;;;;;15.80;99.90;;;;;;5008524;28;19918;-68
2022/09/09 14:08:15;;;;;;;;;;;15.80;99.90;;;;;;5009608;28;19935;-66
2022/09/09 14:10:42;;;;;;;;;;;15.80;99.90;;;;;;5009054;28;19926;-67
2022/09/09 14:13:08;;;;;;;;;;;15.80;99.90;;;;;;5009383;28;19914;-68
2022/09/09 14:15:35;;;;;;;;;;;15.90;99.90;;;;;;5009345;28;19963;-68
2022/09/09 14:18:02;;;;;;;;;;;15.80;99.90;;;;;;5009525;28;19922;-68
2022/09/09 14:20:28;;;;;;;;;;;15.80;99.90;;;;;;5009085;28;19917;-68
2022/09/09 14:22:57;;;;;;;;;;;15.70;99.90;;;;;;5009436;28;20008;-68
2022/09/09 14:25:24;;;;;;;;;;;15.70;99.90;;;;;;5026652;28;19985;-68
2022/09/09 14:27:51;;;;;;;;;;;15.70;99.90;;;;;;5029022;28;19920;-68
2022/09/09 14:30:18;;;;;;;;;;;15.70;99.90;;;;;;5028777;28;19969;-67
2022/09/09 14:32:44;;;;;;;;;;;15.70;99.90;;;;;;5028868;28;19921;-69
2022/09/09 14:35:12;;;;;;;;;;;15.70;99.90;;;;;;5028906;28;19962;-68
2022/09/09 14:37:39;;;;;;;;;;;15.70;99.90;;;;;;5028585;28;20368;-69
2022/09/09 14:40:07;;;;;;;;;;;15.60;99.90;;;;;;5028561;28;19916;-68